THY8HX LTFM-LTAI
Flight info
| Callsign | THY8HX |
|---|---|
| Flight time | N/A |
| Altitude | 35000 |
| Route | RATVU UT35 BABSA |
| Aircraft | A343/H-SDE2E3FGHIJ4J5M1RWXY/LB1D1 |
Departure
| Time | 2026-05-04 17:29 |
|---|---|
| Airport | İstanbul Airport (LTFM) |
Arrival
| Time | N/A |
|---|---|
| Airport | Antalya International Airport (LTAI) |
| Time | Latitude | Longitude | Altitude | Speed | Heading |
|---|---|---|---|---|---|
| 2026-05-04 17:19 | 41.26301 | 28.74882 | 333 ft | 0 kts | 287° |
| 2026-05-04 17:23 | 41.26295 | 28.74904 | 333 ft | 4 kts | 287° |
| 2026-05-04 17:23 | 41.26281 | 28.74971 | 333 ft | 4 kts | 266° |
| 2026-05-04 17:24 | 41.26289 | 28.75001 | 334 ft | 4 kts | 217° |
| 2026-05-04 17:24 | 41.26329 | 28.75022 | 333 ft | 0 kts | 197° |
| 2026-05-04 17:26 | 41.26281 | 28.75009 | 333 ft | 7 kts | 177° |
| 2026-05-04 17:27 | 41.26246 | 28.75166 | 338 ft | 12 kts | 90° |
| 2026-05-04 17:27 | 41.26247 | 28.75393 | 338 ft | 12 kts | 89° |
| 2026-05-04 17:28 | 41.26253 | 28.75627 | 338 ft | 12 kts | 74° |
| 2026-05-04 17:29 | 41.26633 | 28.75658 | 334 ft | 78 kts | 359° |
| 2026-05-04 17:29 | 41.29674 | 28.75735 | 1541 ft | 175 kts | 6° |
| 2026-05-04 17:30 | 41.33090 | 28.78356 | 3691 ft | 218 kts | 30° |
| 2026-05-04 17:31 | 41.35757 | 28.80601 | 4913 ft | 234 kts | 26° |
| 2026-05-04 17:31 | 41.38611 | 28.85719 | 7113 ft | 268 kts | 85° |
| 2026-05-04 17:32 | 41.38221 | 28.90785 | 8145 ft | 284 kts | 90° |
| 2026-05-04 17:33 | 41.33945 | 28.95946 | 10148 ft | 325 kts | 177° |
| 2026-05-04 17:33 | 41.31646 | 28.95513 | 10417 ft | 340 kts | 189° |
| 2026-05-04 17:34 | 41.24185 | 28.94994 | 11127 ft | 377 kts | 180° |
| 2026-05-04 17:34 | 41.21523 | 28.94735 | 11337 ft | 389 kts | 184° |
| 2026-05-04 17:35 | 41.13241 | 28.93796 | 12400 ft | 405 kts | 183° |
| 2026-05-04 17:35 | 41.07596 | 28.93240 | 13345 ft | 409 kts | 183° |
| 2026-05-04 17:35 | 41.04740 | 28.92969 | 13790 ft | 412 kts | 183° |
| 2026-05-04 17:36 | 41.01874 | 28.92700 | 14224 ft | 414 kts | 183° |
| 2026-05-04 17:36 | 40.98978 | 28.92385 | 14608 ft | 417 kts | 184° |
| 2026-05-04 17:36 | 40.96074 | 28.92005 | 14960 ft | 421 kts | 185° |
| 2026-05-04 17:36 | 40.93151 | 28.91620 | 15325 ft | 424 kts | 185° |
| 2026-05-04 17:37 | 40.90194 | 28.91238 | 15699 ft | 427 kts | 185° |
| 2026-05-04 17:37 | 40.87223 | 28.90977 | 16102 ft | 429 kts | 178° |
| 2026-05-04 17:37 | 40.84269 | 28.91112 | 16510 ft | 431 kts | 175° |
| 2026-05-04 17:37 | 40.81265 | 28.91357 | 16914 ft | 434 kts | 175° |
| 2026-05-04 17:38 | 40.78237 | 28.91610 | 17290 ft | 437 kts | 175° |
| 2026-05-04 17:38 | 40.75180 | 28.91839 | 17564 ft | 444 kts | 176° |